createdAt,value
2023-05-04T00:00:31.434Z,8.70
2023-05-04T00:01:31.400Z,10.50
2023-05-04T00:02:31.466Z,7.30
2023-05-04T00:03:31.543Z,8.00
2023-05-04T00:04:31.422Z,13.90
2023-05-04T00:05:31.355Z,9.70
2023-05-04T00:06:31.333Z,7.70
2023-05-04T00:07:31.336Z,6.30
2023-05-04T00:08:31.310Z,13.60
2023-05-04T00:09:31.326Z,8.00
2023-05-04T00:10:31.273Z,10.10
2023-05-04T00:11:31.267Z,6.70
2023-05-04T00:12:31.258Z,11.00
2023-05-04T00:13:31.241Z,8.80
2023-05-04T00:14:31.223Z,8.00
2023-05-04T00:15:31.236Z,10.10
2023-05-04T00:16:31.316Z,6.20
2023-05-04T00:17:31.197Z,7.00
2023-05-04T00:18:31.180Z,9.60
2023-05-04T00:19:31.162Z,11.20
2023-05-04T00:20:31.169Z,7.00
2023-05-04T00:21:31.142Z,8.00
2023-05-04T00:22:31.132Z,10.90
2023-05-04T00:23:31.104Z,6.90
2023-05-04T00:24:31.105Z,8.20
2023-05-04T00:25:31.130Z,6.60
2023-05-04T00:26:31.067Z,10.50
2023-05-04T00:27:31.058Z,6.80
2023-05-04T00:28:31.054Z,5.80
2023-05-04T00:29:31.030Z,11.50
2023-05-04T00:30:31.072Z,8.70
2023-05-04T00:31:31.032Z,9.50
2023-05-04T00:32:31.029Z,7.00
2023-05-04T00:33:30.978Z,9.20
2023-05-04T00:34:30.978Z,10.50
2023-05-04T00:35:31.000Z,14.20
2023-05-04T00:36:30.934Z,9.80
2023-05-04T00:37:30.935Z,12.60
2023-05-04T00:38:30.915Z,6.70
2023-05-04T00:39:30.916Z,7.50
2023-05-04T00:40:30.925Z,7.10
2023-05-04T00:41:30.881Z,8.50
2023-05-04T00:42:30.873Z,11.50
2023-05-04T00:43:30.854Z,7.20
2023-05-04T00:44:30.855Z,7.30
2023-05-04T00:45:30.876Z,10.80
2023-05-04T00:46:30.884Z,10.90
2023-05-04T00:47:30.842Z,8.40
2023-05-04T00:48:30.791Z,11.30
2023-05-04T00:49:30.770Z,10.10
2023-05-04T00:50:30.960Z,10.90
2023-05-04T00:51:30.775Z,8.20
2023-05-04T00:52:30.738Z,9.70
2023-05-04T00:53:30.736Z,6.20
2023-05-04T00:54:30.720Z,9.00
2023-05-04T00:55:30.700Z,7.60
2023-05-04T00:56:30.716Z,7.20
2023-05-04T00:57:30.684Z,7.50
2023-05-04T00:58:30.660Z,8.80
2023-05-04T00:59:30.650Z,11.10
2023-05-04T01:00:30.634Z,7.60
2023-05-04T01:01:30.759Z,10.60
2023-05-04T01:02:30.638Z,7.60
2023-05-04T01:03:30.665Z,8.40
2023-05-04T01:04:30.582Z,6.90
2023-05-04T01:05:31.528Z,10.10
2023-05-04T01:06:30.560Z,9.30
2023-05-04T01:07:30.560Z,11.20
2023-05-04T01:08:30.530Z,7.50
2023-05-04T01:09:30.514Z,10.90
2023-05-04T01:10:30.515Z,12.80
2023-05-04T01:11:30.513Z,7.30
2023-05-04T01:12:30.508Z,11.70
2023-05-04T01:13:30.498Z,7.70
2023-05-04T01:14:30.474Z,9.30
2023-05-04T01:15:30.458Z,8.80
2023-05-04T01:16:30.450Z,13.40
2023-05-04T01:17:30.489Z,8.00
2023-05-04T01:18:30.442Z,9.10
2023-05-04T01:19:30.397Z,9.40
2023-05-04T01:20:30.375Z,12.10
2023-05-04T01:21:30.369Z,9.20
2023-05-04T01:22:30.365Z,9.60
2023-05-04T01:23:30.361Z,9.00
2023-05-04T01:24:30.343Z,10.20
2023-05-04T01:25:30.309Z,9.50
2023-05-04T01:26:30.292Z,10.80
2023-05-04T01:27:30.285Z,10.10
2023-05-04T01:28:30.271Z,9.00
2023-05-04T01:29:30.398Z,7.40
2023-05-04T01:30:30.309Z,12.90
2023-05-04T01:31:30.257Z,8.80
2023-05-04T01:32:30.252Z,10.30
2023-05-04T01:33:30.206Z,12.40
2023-05-04T01:34:30.188Z,8.20
2023-05-04T01:35:30.224Z,7.90
2023-05-04T01:36:30.188Z,9.40
2023-05-04T01:37:30.182Z,10.90
2023-05-04T01:38:30.162Z,8.50
2023-05-04T01:39:30.128Z,8.90
2023-05-04T01:40:30.144Z,8.70
2023-05-04T01:41:30.110Z,11.10
2023-05-04T01:42:30.116Z,10.40
2023-05-04T01:43:30.085Z,8.90
2023-05-04T01:44:30.068Z,13.00
2023-05-04T01:45:30.042Z,9.20
2023-05-04T01:46:30.071Z,13.60
2023-05-04T01:47:30.043Z,11.90
2023-05-04T01:48:30.030Z,12.00
2023-05-04T01:49:29.998Z,10.10
2023-05-04T01:50:29.986Z,9.30
2023-05-04T01:51:30.037Z,13.10
2023-05-04T01:52:29.955Z,9.20
2023-05-04T01:53:29.949Z,10.70
2023-05-04T01:54:29.937Z,9.20
2023-05-04T01:55:29.913Z,9.50
2023-05-04T01:56:29.899Z,10.70
2023-05-04T01:57:30.053Z,13.70
2023-05-04T01:58:29.882Z,9.00
2023-05-04T01:59:29.882Z,12.60
2023-05-04T02:00:29.895Z,11.40
2023-05-04T02:01:29.898Z,10.30
2023-05-04T02:02:29.851Z,13.40
2023-05-04T02:03:29.899Z,15.90
2023-05-04T02:04:29.800Z,13.30
2023-05-04T02:05:29.785Z,10.80
2023-05-04T02:06:29.780Z,9.00
2023-05-04T02:07:29.829Z,8.40
2023-05-04T02:08:29.789Z,11.70
2023-05-04T02:09:29.778Z,10.30
2023-05-04T02:10:29.764Z,11.00
2023-05-04T02:11:29.718Z,9.30
2023-05-04T02:12:29.750Z,9.40
2023-05-04T02:13:29.679Z,12.00
2023-05-04T02:14:29.706Z,11.60
2023-05-04T02:15:29.654Z,10.30
2023-05-04T02:16:29.698Z,10.90
2023-05-04T02:17:29.696Z,15.70
2023-05-04T02:18:29.611Z,10.40
2023-05-04T02:19:29.615Z,13.40
2023-05-04T02:20:29.602Z,7.90
2023-05-04T02:21:29.591Z,10.90
2023-05-04T02:22:29.565Z,9.60
2023-05-04T02:23:29.572Z,10.80
2023-05-04T02:24:29.552Z,11.10
2023-05-04T02:25:29.550Z,14.70
2023-05-04T02:26:29.510Z,11.00
2023-05-04T02:27:29.497Z,15.60
2023-05-04T02:28:29.499Z,11.00
2023-05-04T02:29:29.500Z,11.60
2023-05-04T02:30:29.507Z,10.50
2023-05-04T02:31:29.510Z,11.70
2023-05-04T02:32:29.490Z,13.60
2023-05-04T02:33:29.427Z,14.80
2023-05-04T02:34:29.404Z,10.30
2023-05-04T02:35:29.407Z,12.60
2023-05-04T02:36:29.424Z,11.40
2023-05-04T02:37:29.409Z,13.00
2023-05-04T02:38:29.358Z,15.90
2023-05-04T02:39:29.342Z,10.80
2023-05-04T02:40:29.346Z,14.70
2023-05-04T02:41:29.324Z,9.30
2023-05-04T02:42:29.387Z,9.70
2023-05-04T02:43:29.296Z,11.40
2023-05-04T02:44:29.280Z,11.00
2023-05-04T02:45:29.293Z,10.30
2023-05-04T02:46:29.247Z,13.40
2023-05-04T02:47:29.320Z,11.70
2023-05-04T02:48:29.242Z,13.60
2023-05-04T02:49:29.206Z,11.60
2023-05-04T02:50:29.215Z,10.20
2023-05-04T02:51:29.179Z,12.10
2023-05-04T02:52:29.360Z,9.60
2023-05-04T02:53:29.197Z,10.40
2023-05-04T02:54:29.173Z,11.50
2023-05-04T02:55:29.156Z,12.00
2023-05-04T02:56:29.194Z,8.90
2023-05-04T02:57:29.135Z,14.10
2023-05-04T02:58:29.126Z,9.50
2023-05-04T02:59:29.107Z,10.60
2023-05-04T03:00:29.077Z,11.30
2023-05-04T03:01:29.092Z,10.00
2023-05-04T03:02:29.069Z,14.70
2023-05-04T03:03:29.046Z,13.30
2023-05-04T03:04:29.106Z,14.20
2023-05-04T03:05:29.017Z,11.20
2023-05-04T03:06:29.005Z,9.10
2023-05-04T03:07:28.990Z,9.90
2023-05-04T03:08:28.992Z,12.10
2023-05-04T03:09:28.986Z,11.80
2023-05-04T03:10:28.939Z,9.50
2023-05-04T03:11:28.950Z,12.10
2023-05-04T03:12:28.964Z,10.30
2023-05-04T03:13:28.908Z,11.30
2023-05-04T03:14:28.927Z,15.60
2023-05-04T03:15:28.917Z,9.70
2023-05-04T03:16:28.923Z,11.20
2023-05-04T03:17:28.880Z,11.20
2023-05-04T03:19:37.814Z,11.40
2023-05-04T03:20:37.763Z,12.30
2023-05-04T03:21:37.757Z,13.60
2023-05-04T03:22:37.755Z,9.30
2023-05-04T03:23:37.744Z,10.40
2023-05-04T03:24:37.754Z,9.40
2023-05-04T03:25:37.724Z,10.60
2023-05-04T03:26:37.717Z,11.40
2023-05-04T03:27:37.685Z,9.80
2023-05-04T03:28:37.672Z,12.50
2023-05-04T03:29:37.665Z,10.00
2023-05-04T03:30:37.673Z,11.50
2023-05-04T03:31:37.690Z,11.60
2023-05-04T03:32:37.682Z,9.70
2023-05-04T03:33:37.618Z,9.90
2023-05-04T03:34:37.600Z,9.90
2023-05-04T03:35:37.641Z,10.40
2023-05-04T03:36:37.585Z,8.60
2023-05-04T03:37:37.562Z,11.90
2023-05-04T03:38:37.539Z,10.80
2023-05-04T03:39:37.547Z,12.30
2023-05-04T03:40:37.538Z,14.70
2023-05-04T03:41:37.558Z,11.70
2023-05-04T03:42:37.494Z,11.70
2023-05-04T03:43:37.511Z,15.40
2023-05-04T03:44:37.473Z,8.70
2023-05-04T03:45:37.451Z,11.40
2023-05-04T03:46:37.495Z,12.40
2023-05-04T03:47:37.502Z,8.20
2023-05-04T03:48:37.422Z,15.40
2023-05-04T03:49:37.432Z,13.00
2023-05-04T03:50:37.388Z,10.70
2023-05-04T03:51:37.380Z,12.50
2023-05-04T03:52:37.367Z,12.20
2023-05-04T03:53:37.536Z,12.90
2023-05-04T03:54:37.355Z,14.60
2023-05-04T03:55:37.334Z,10.20
2023-05-04T03:56:37.309Z,10.20
2023-05-04T03:57:37.302Z,9.90
2023-05-04T03:58:37.318Z,9.80
2023-05-04T03:59:37.273Z,11.70
2023-05-04T04:00:37.293Z,10.60
2023-05-04T04:01:37.256Z,12.60
2023-05-04T04:02:37.320Z,13.70
2023-05-04T04:03:37.329Z,12.40
2023-05-04T04:04:37.314Z,10.70
2023-05-04T04:05:37.224Z,8.50
2023-05-04T04:06:37.206Z,9.10
2023-05-04T04:07:37.172Z,10.30
2023-05-04T04:08:37.151Z,10.00
2023-05-04T04:09:37.147Z,13.70
2023-05-04T04:10:38.097Z,11.50
2023-05-04T04:11:37.140Z,10.00
2023-05-04T04:12:37.119Z,10.20
2023-05-04T04:13:37.088Z,8.50
2023-05-04T04:14:37.078Z,10.50
2023-05-04T04:15:37.083Z,11.70
2023-05-04T04:16:37.129Z,12.00
2023-05-04T04:17:37.067Z,11.90
2023-05-04T04:18:37.063Z,9.80
2023-05-04T04:19:37.035Z,13.60
2023-05-04T04:20:37.016Z,11.70
2023-05-04T04:21:36.999Z,14.30
2023-05-04T04:22:37.003Z,11.50
2023-05-04T04:23:36.972Z,11.90
2023-05-04T04:24:36.974Z,8.40
2023-05-04T04:25:36.945Z,10.20
2023-05-04T04:26:36.925Z,15.40
2023-05-04T04:27:37.042Z,13.90
2023-05-04T04:28:36.892Z,10.70
2023-05-04T04:29:36.889Z,8.40
2023-05-04T04:30:36.877Z,12.90
2023-05-04T04:31:36.882Z,9.60
2023-05-04T04:32:36.874Z,12.10
2023-05-04T04:33:36.891Z,9.70
2023-05-04T04:34:36.828Z,12.50
2023-05-04T04:35:36.814Z,13.70
2023-05-04T04:36:36.797Z,11.30
2023-05-04T04:37:36.812Z,12.60
2023-05-04T04:38:36.778Z,14.80
2023-05-04T04:39:36.836Z,8.80
2023-05-04T04:40:36.743Z,9.30
2023-05-04T04:41:36.721Z,9.90
2023-05-04T04:42:36.740Z,12.30
2023-05-04T04:43:36.711Z,7.70
2023-05-04T04:44:36.712Z,10.00
2023-05-04T04:45:36.677Z,9.90
2023-05-04T04:46:36.751Z,12.30
2023-05-04T04:47:36.686Z,9.80
2023-05-04T04:48:36.643Z,9.00
2023-05-04T04:49:36.636Z,9.20
2023-05-04T04:50:36.616Z,7.90
2023-05-04T04:51:36.622Z,10.80
2023-05-04T04:52:36.621Z,10.20
2023-05-04T04:53:36.583Z,10.20
2023-05-04T04:54:36.556Z,8.80
2023-05-04T04:55:36.552Z,10.30
2023-05-04T04:56:36.529Z,12.00
2023-05-04T04:57:36.520Z,8.30
2023-05-04T04:58:36.562Z,13.40
2023-05-04T04:59:36.504Z,11.50
2023-05-04T05:00:36.499Z,12.40
2023-05-04T05:01:36.662Z,13.70
2023-05-04T05:02:36.498Z,14.80
2023-05-04T05:03:36.458Z,11.50
2023-05-04T05:04:36.438Z,15.00
2023-05-04T05:05:36.428Z,8.70
2023-05-04T05:06:36.408Z,9.00
2023-05-04T05:07:36.464Z,15.00
2023-05-04T05:08:36.390Z,13.60
2023-05-04T05:09:36.372Z,11.10
2023-05-04T05:10:36.368Z,17.00
2023-05-04T05:11:36.362Z,11.20
2023-05-04T05:12:36.615Z,12.00
2023-05-04T05:13:36.328Z,9.40
2023-05-04T05:14:36.337Z,8.90
2023-05-04T05:15:36.297Z,10.50
2023-05-04T05:16:36.305Z,11.50
2023-05-04T05:17:36.355Z,10.70
2023-05-04T05:18:36.259Z,10.30
2023-05-04T05:19:36.291Z,12.20
2023-05-04T05:20:36.225Z,10.30
2023-05-04T05:21:36.215Z,11.00
2023-05-04T05:22:36.429Z,10.30
2023-05-04T05:23:36.224Z,15.50
2023-05-04T05:24:36.195Z,11.60
2023-05-04T05:25:36.183Z,8.50
2023-05-04T05:26:36.150Z,9.50
2023-05-04T05:27:36.162Z,10.20
2023-05-04T05:28:36.131Z,10.30
2023-05-04T05:29:36.137Z,9.50
2023-05-04T05:30:36.207Z,12.50
2023-05-04T05:31:36.098Z,13.10
2023-05-04T05:32:36.089Z,9.60
2023-05-04T05:33:36.063Z,9.80
2023-05-04T05:34:36.054Z,11.80
2023-05-04T05:35:36.030Z,13.40
2023-05-04T05:36:36.185Z,11.20
2023-05-04T05:37:36.020Z,10.30
2023-05-04T05:38:36.004Z,15.50
2023-05-04T05:39:35.995Z,13.30
2023-05-04T05:40:35.970Z,13.00
2023-05-04T05:41:35.979Z,13.70
2023-05-04T05:42:35.991Z,11.20
2023-05-04T05:43:35.943Z,11.90
2023-05-04T05:44:35.920Z,9.80
2023-05-04T05:45:35.932Z,8.90
2023-05-04T05:46:35.981Z,13.20
2023-05-04T05:47:35.914Z,14.20
2023-05-04T05:48:35.879Z,18.90
2023-05-04T05:49:35.854Z,13.30
2023-05-04T05:50:35.855Z,12.30
2023-05-04T05:51:35.833Z,13.50
2023-05-04T05:52:35.828Z,16.60
2023-05-04T05:53:35.834Z,12.50
2023-05-04T05:54:35.793Z,13.20
2023-05-04T05:55:35.786Z,16.60
2023-05-04T05:56:35.776Z,14.80
2023-05-04T05:57:35.752Z,13.70
2023-05-04T05:58:35.746Z,13.90
2023-05-04T05:59:35.730Z,12.80
2023-05-04T06:00:35.737Z,14.60
2023-05-04T06:01:35.895Z,8.50
2023-05-04T06:02:35.767Z,14.30
2023-05-04T06:03:35.880Z,10.10
2023-05-04T06:04:35.701Z,14.30
2023-05-04T06:05:35.669Z,13.60
2023-05-04T06:06:35.624Z,11.20
2023-05-04T06:07:35.701Z,11.90
2023-05-04T06:08:35.649Z,14.70
2023-05-04T06:09:35.603Z,15.50
2023-05-04T06:10:35.592Z,14.80
2023-05-04T06:11:35.568Z,17.00
2023-05-04T06:12:35.628Z,17.00
2023-05-04T06:13:35.610Z,15.30
2023-05-04T06:14:35.571Z,13.90
2023-05-04T06:15:35.521Z,15.10
2023-05-04T06:16:35.536Z,9.70
2023-05-04T06:17:35.565Z,13.70
2023-05-04T06:18:35.483Z,10.30
2023-05-04T06:19:35.549Z,9.60
2023-05-04T06:20:35.507Z,10.40
2023-05-04T06:21:35.471Z,14.50
2023-05-04T06:22:35.457Z,13.30
2023-05-04T06:23:35.443Z,9.80
2023-05-04T06:24:35.406Z,13.70
2023-05-04T06:25:35.406Z,16.60
2023-05-04T06:26:35.409Z,12.60
2023-05-04T06:27:35.361Z,14.10
2023-05-04T06:28:35.349Z,9.40
2023-05-04T06:29:35.361Z,8.90
2023-05-04T06:30:35.340Z,13.20
2023-05-04T06:31:35.369Z,13.10
2023-05-04T06:32:35.400Z,14.00
2023-05-04T06:33:35.285Z,15.80
2023-05-04T06:34:35.301Z,9.80
2023-05-04T06:35:35.263Z,14.10
2023-05-04T06:36:35.270Z,11.50
2023-05-04T06:37:35.227Z,11.00
2023-05-04T06:38:37.645Z,10.70
2023-05-04T06:39:35.211Z,10.10
2023-05-04T06:40:35.198Z,14.60
2023-05-04T06:41:35.219Z,9.50
2023-05-04T06:42:35.182Z,14.90
2023-05-04T06:43:35.199Z,11.00
2023-05-04T06:44:35.149Z,11.10
2023-05-04T06:45:35.171Z,11.80
2023-05-04T06:46:35.116Z,9.80
2023-05-04T06:47:35.197Z,16.60
2023-05-04T06:48:35.088Z,10.90
2023-05-04T06:49:35.112Z,8.30
2023-05-04T06:50:35.081Z,10.80
2023-05-04T06:51:35.051Z,11.00
2023-05-04T06:52:35.058Z,10.90
2023-05-04T06:53:35.037Z,10.90
2023-05-04T06:54:35.032Z,15.60
2023-05-04T06:55:35.005Z,16.00
2023-05-04T06:56:34.987Z,9.50
2023-05-04T06:57:35.001Z,6.20
2023-05-04T06:58:35.157Z,11.70
2023-05-04T06:59:35.351Z,9.30
2023-05-04T07:00:34.933Z,12.40
2023-05-04T07:01:34.964Z,9.70
2023-05-04T07:02:35.972Z,9.80
2023-05-04T07:03:34.931Z,8.00
2023-05-04T07:04:35.097Z,8.70
2023-05-04T07:05:34.915Z,9.20
2023-05-04T07:06:34.867Z,12.90
2023-05-04T07:07:34.877Z,7.90
2023-05-04T07:08:34.840Z,11.70
2023-05-04T07:09:34.840Z,10.30
2023-05-04T07:10:34.849Z,10.40
2023-05-04T07:11:34.799Z,9.00
2023-05-04T07:12:34.820Z,11.80
2023-05-04T07:13:34.774Z,13.60
2023-05-04T07:14:34.756Z,12.60
2023-05-04T07:15:34.809Z,12.50
2023-05-04T07:16:34.754Z,15.00
2023-05-04T07:17:34.729Z,8.80
2023-05-04T07:18:34.700Z,7.90
2023-05-04T07:19:34.688Z,8.80
2023-05-04T07:20:34.674Z,10.80
2023-05-04T07:21:34.684Z,11.90
2023-05-04T07:22:34.646Z,8.20
2023-05-04T07:23:34.661Z,16.70
2023-05-04T07:24:34.621Z,10.20
2023-05-04T07:25:35.147Z,12.40
2023-05-04T07:26:34.624Z,9.20
2023-05-04T07:27:34.592Z,8.00
2023-05-04T07:28:34.576Z,13.50
2023-05-04T07:29:34.551Z,10.10
2023-05-04T07:30:34.585Z,11.10
2023-05-04T07:31:34.556Z,9.00
2023-05-04T07:32:34.523Z,8.50
2023-05-04T07:33:34.574Z,7.00
2023-05-04T07:34:45.055Z,6.80
2023-05-04T07:35:35.508Z,8.00
2023-05-04T07:36:34.653Z,7.70
2023-05-04T07:37:34.456Z,5.40
2023-05-04T07:38:35.857Z,8.10
2023-05-04T07:39:34.562Z,10.60
2023-05-04T07:40:34.419Z,5.70
2023-05-04T07:41:34.480Z,7.00
2023-05-04T07:42:34.419Z,11.00
2023-05-04T07:43:34.375Z,10.20
2023-05-04T07:44:34.389Z,6.10
2023-05-04T07:45:34.356Z,6.40
2023-05-04T07:46:34.591Z,9.10
2023-05-04T07:47:34.580Z,8.70
2023-05-04T07:48:34.327Z,13.20
2023-05-04T07:49:34.295Z,4.40
2023-05-04T07:50:34.274Z,7.40
2023-05-04T07:51:34.274Z,6.80
2023-05-04T07:52:34.304Z,5.30
2023-05-04T07:53:34.253Z,7.50
2023-05-04T07:54:34.252Z,5.50
2023-05-04T07:55:34.209Z,7.90
2023-05-04T07:56:34.206Z,4.60
2023-05-04T07:57:34.195Z,4.20
2023-05-04T07:58:34.216Z,4.90
2023-05-04T07:59:34.174Z,7.00
2023-05-04T08:00:34.160Z,4.60
2023-05-04T08:01:34.194Z,4.30
2023-05-04T08:02:34.206Z,6.90
2023-05-04T08:03:34.113Z,9.00
2023-05-04T08:04:34.138Z,7.00
2023-05-04T08:05:34.088Z,6.20
2023-05-04T08:06:34.081Z,7.90
2023-05-04T08:07:34.232Z,6.80
2023-05-04T08:08:34.060Z,5.30
2023-05-04T08:09:34.039Z,7.20
2023-05-04T08:10:34.231Z,5.70
2023-05-04T08:11:34.021Z,6.20
2023-05-04T08:12:34.045Z,7.20
2023-05-04T08:13:34.003Z,6.50
2023-05-04T08:14:35.254Z,6.50
2023-05-04T08:15:33.971Z,6.60
2023-05-04T08:16:35.228Z,7.80
2023-05-04T08:17:33.977Z,3.80
2023-05-04T08:18:33.935Z,5.90
2023-05-04T08:19:33.981Z,5.50
2023-05-04T08:20:33.906Z,5.40
2023-05-04T08:21:33.914Z,4.40
2023-05-04T08:22:33.873Z,6.20
2023-05-04T08:23:33.871Z,4.60
2023-05-04T08:24:33.857Z,7.60
2023-05-04T08:25:33.869Z,3.70
2023-05-04T08:26:33.820Z,6.90
2023-05-04T08:27:33.811Z,7.60
2023-05-04T08:28:33.799Z,8.70
2023-05-04T08:29:33.791Z,7.50
2023-05-04T08:30:33.770Z,6.30
2023-05-04T08:31:33.794Z,6.10
2023-05-04T08:32:33.764Z,5.10
2023-05-04T08:33:33.731Z,10.10
2023-05-04T08:34:33.712Z,6.00
2023-05-04T08:35:33.710Z,7.30
2023-05-04T08:36:33.718Z,5.00
2023-05-04T08:37:33.685Z,4.70
2023-05-04T08:38:33.681Z,6.60
2023-05-04T08:39:33.645Z,6.00
2023-05-04T08:40:33.649Z,6.40
2023-05-04T08:41:33.651Z,3.10
2023-05-04T08:42:33.617Z,6.90
2023-05-04T08:43:33.606Z,6.90
2023-05-04T08:44:33.642Z,4.70
2023-05-04T08:45:33.598Z,4.90
2023-05-04T08:46:33.602Z,7.70
2023-05-04T08:47:33.578Z,5.30
2023-05-04T08:48:33.536Z,7.30
2023-05-04T08:49:33.532Z,4.80
2023-05-04T08:50:33.506Z,5.90
2023-05-04T08:51:33.495Z,4.90
2023-05-04T08:52:33.683Z,4.80
2023-05-04T08:53:33.470Z,4.30
2023-05-04T08:54:33.469Z,6.00
2023-05-04T08:55:33.438Z,6.70
2023-05-04T08:56:33.433Z,5.50
2023-05-04T08:57:33.442Z,5.80
2023-05-04T08:58:33.426Z,5.20
2023-05-04T08:59:33.408Z,4.90
2023-05-04T09:00:33.410Z,7.20
2023-05-04T09:01:33.474Z,6.40
2023-05-04T09:02:33.367Z,4.70
2023-05-04T09:03:33.404Z,5.80
2023-05-04T09:04:33.347Z,7.50
2023-05-04T09:05:33.352Z,5.40
2023-05-04T09:06:33.300Z,5.60
2023-05-04T09:07:33.297Z,4.60
2023-05-04T09:08:33.278Z,4.30
2023-05-04T09:09:33.270Z,5.00
2023-05-04T09:10:33.304Z,7.60
2023-05-04T09:11:33.227Z,5.10
2023-05-04T09:12:33.238Z,5.50
2023-05-04T09:13:33.220Z,4.30
2023-05-04T09:14:33.218Z,5.50
2023-05-04T09:15:33.235Z,5.30
2023-05-04T09:16:33.174Z,4.10
2023-05-04T09:17:33.181Z,4.10
2023-05-04T09:18:33.222Z,7.60
2023-05-04T09:19:33.132Z,6.30
2023-05-04T09:20:33.203Z,6.10
2023-05-04T09:21:33.101Z,4.60
2023-05-04T09:22:33.086Z,5.70
2023-05-04T09:23:33.133Z,5.10
2023-05-04T09:24:33.172Z,4.50
2023-05-04T09:25:33.056Z,4.80
2023-05-04T09:26:33.045Z,7.20
2023-05-04T09:27:33.034Z,3.90
2023-05-04T09:28:33.019Z,4.40
2023-05-04T09:29:32.994Z,6.70
2023-05-04T09:30:32.988Z,5.10
2023-05-04T09:31:33.115Z,7.40
2023-05-04T09:32:33.008Z,5.60
2023-05-04T09:33:32.957Z,5.10
2023-05-04T09:34:32.929Z,6.90
2023-05-04T09:35:34.397Z,4.90
2023-05-04T09:36:32.940Z,4.20
2023-05-04T09:37:32.909Z,3.20
2023-05-04T09:38:32.881Z,6.60
2023-05-04T09:39:32.873Z,8.80
2023-05-04T09:40:32.851Z,6.00
2023-05-04T09:41:33.014Z,6.90
2023-05-04T09:42:32.824Z,5.00
2023-05-04T09:43:32.816Z,3.80
2023-05-04T09:44:32.807Z,4.60
2023-05-04T09:45:32.805Z,5.50
2023-05-04T09:46:33.627Z,5.30
2023-05-04T09:47:32.805Z,8.40
2023-05-04T09:48:32.785Z,5.00
2023-05-04T09:49:32.791Z,5.70
2023-05-04T09:50:32.737Z,6.60
2023-05-04T09:51:32.709Z,4.60
2023-05-04T09:52:32.698Z,4.20
2023-05-04T09:53:32.730Z,5.20
2023-05-04T09:54:32.685Z,8.30
2023-05-04T09:55:32.658Z,3.50
2023-05-04T09:56:32.684Z,3.40
2023-05-04T09:57:32.655Z,8.30
2023-05-04T09:58:32.661Z,3.30
2023-05-04T09:59:32.634Z,8.10
2023-05-04T10:00:32.598Z,4.80
2023-05-04T10:01:32.617Z,4.30
2023-05-04T10:02:32.628Z,4.00
2023-05-04T10:03:32.560Z,4.70
2023-05-04T10:04:32.580Z,5.70
2023-05-04T10:05:32.550Z,4.70
2023-05-04T10:06:32.560Z,4.40
2023-05-04T10:07:32.504Z,5.30
2023-05-04T10:08:32.490Z,4.30
2023-05-04T10:09:32.521Z,4.50
2023-05-04T10:10:32.484Z,8.10
2023-05-04T10:11:32.479Z,3.20
2023-05-04T10:12:32.467Z,2.70
2023-05-04T10:13:32.442Z,4.70
2023-05-04T10:14:32.421Z,4.50
2023-05-04T10:15:32.431Z,3.10
2023-05-04T10:16:32.421Z,4.30
2023-05-04T10:17:32.408Z,3.80
2023-05-04T10:18:32.378Z,3.60
2023-05-04T10:19:32.359Z,3.60
2023-05-04T10:20:32.554Z,3.50
2023-05-04T10:21:32.336Z,7.40
2023-05-04T10:22:32.313Z,4.90
2023-05-04T10:23:32.296Z,2.70
2023-05-04T10:24:32.299Z,4.50
2023-05-04T10:25:32.283Z,4.50
2023-05-04T10:26:32.299Z,5.70
2023-05-04T10:27:32.246Z,4.20
2023-05-04T10:28:32.230Z,3.80
2023-05-04T10:29:32.222Z,3.40
2023-05-04T10:30:32.222Z,4.30
2023-05-04T10:31:32.231Z,3.80
2023-05-04T10:32:32.200Z,6.10
2023-05-04T10:33:32.193Z,6.60
2023-05-04T10:34:32.181Z,4.20
2023-05-04T10:35:32.145Z,7.00
2023-05-04T10:36:32.189Z,8.80
2023-05-04T10:37:32.123Z,3.40
2023-05-04T10:38:32.116Z,5.30
2023-05-04T10:39:32.113Z,2.10
2023-05-04T10:40:32.084Z,3.00
2023-05-04T10:41:32.072Z,3.90
2023-05-04T10:42:32.113Z,2.90
2023-05-04T10:43:32.058Z,4.10
2023-05-04T10:44:32.037Z,3.10
2023-05-04T10:45:32.068Z,3.80
2023-05-04T10:46:32.052Z,3.30
2023-05-04T10:47:32.020Z,4.50
2023-05-04T10:48:32.023Z,4.20
2023-05-04T10:49:31.991Z,3.50
2023-05-04T10:50:31.949Z,3.10
2023-05-04T10:51:42.395Z,3.70
2023-05-04T10:52:33.097Z,4.40
2023-05-04T10:53:31.940Z,7.80
2023-05-04T10:54:31.955Z,3.00
2023-05-04T10:55:31.889Z,3.70
2023-05-04T10:56:31.887Z,4.50
2023-05-04T10:57:31.881Z,3.20
2023-05-04T10:58:31.858Z,2.60
2023-05-04T10:59:31.877Z,4.60
2023-05-04T11:00:31.832Z,3.00
2023-05-04T11:01:31.825Z,3.90
2023-05-04T11:02:33.432Z,2.70
2023-05-04T11:03:31.859Z,3.50
2023-05-04T11:04:31.815Z,4.60
2023-05-04T11:05:31.774Z,2.40
2023-05-04T11:06:31.760Z,2.50
2023-05-04T11:07:31.744Z,2.70
2023-05-04T11:08:31.752Z,6.20
2023-05-04T11:09:31.750Z,4.90
2023-05-04T11:10:31.704Z,4.00
2023-05-04T11:11:31.697Z,4.20
2023-05-04T11:12:31.738Z,5.30
2023-05-04T11:13:31.683Z,3.20
2023-05-04T11:14:31.702Z,5.10
2023-05-04T11:15:31.688Z,1.90
2023-05-04T11:16:31.639Z,3.70
2023-05-04T11:17:31.666Z,2.60
2023-05-04T11:18:31.624Z,2.20
2023-05-04T11:19:31.598Z,3.10
2023-05-04T11:20:31.600Z,4.50
2023-05-04T11:21:31.615Z,6.20
2023-05-04T11:22:31.557Z,2.80
2023-05-04T11:23:31.653Z,3.60
2023-05-04T11:24:31.525Z,5.00
2023-05-04T11:25:31.516Z,3.10
2023-05-04T11:26:31.584Z,3.00
2023-05-04T11:27:31.525Z,3.60
2023-05-04T11:28:31.474Z,5.10
2023-05-04T11:29:31.473Z,4.30
2023-05-04T11:30:31.468Z,3.80
2023-05-04T11:31:31.518Z,4.50
2023-05-04T11:32:31.565Z,4.80
2023-05-04T11:33:31.462Z,2.90
2023-05-04T11:34:31.408Z,4.50
2023-05-04T11:35:31.394Z,3.20
2023-05-04T11:36:31.381Z,4.60
2023-05-04T11:37:31.364Z,3.20
2023-05-04T11:38:31.403Z,3.50
2023-05-04T11:39:31.359Z,4.40
2023-05-04T11:40:31.320Z,2.80
2023-05-04T11:41:31.304Z,3.40
2023-05-04T11:42:31.302Z,4.10
2023-05-04T11:43:31.330Z,2.70
2023-05-04T11:44:31.272Z,4.60
2023-05-04T11:45:31.263Z,2.90
2023-05-04T11:46:31.295Z,5.40
2023-05-04T11:47:31.384Z,3.20
2023-05-04T11:48:31.263Z,2.50
2023-05-04T11:49:31.231Z,3.50
2023-05-04T11:50:31.257Z,4.60
2023-05-04T11:51:31.206Z,2.90
2023-05-04T11:52:31.170Z,2.00
2023-05-04T11:53:31.217Z,3.60
2023-05-04T11:54:31.154Z,3.00
2023-05-04T11:55:31.131Z,3.30
2023-05-04T11:56:31.151Z,2.90
2023-05-04T11:57:31.131Z,2.50
2023-05-04T11:58:31.124Z,5.30
2023-05-04T11:59:31.190Z,3.10
2023-05-04T12:00:31.146Z,4.80
2023-05-04T12:01:31.070Z,3.10
2023-05-04T12:02:31.112Z,3.10
2023-05-04T12:03:47.907Z,2.00
2023-05-04T12:04:32.020Z,3.10
2023-05-04T12:05:31.071Z,5.60
2023-05-04T12:06:31.017Z,2.50
2023-05-04T12:07:31.017Z,2.80
2023-05-04T12:08:30.979Z,2.60
2023-05-04T12:09:30.957Z,3.40
2023-05-04T12:10:30.933Z,3.80
2023-05-04T12:11:30.956Z,2.70
2023-05-04T12:12:33.387Z,3.20
2023-05-04T12:13:30.939Z,3.00
2023-05-04T12:14:31.033Z,4.20
2023-05-04T12:15:30.873Z,4.00
2023-05-04T12:16:30.928Z,5.10
2023-05-04T12:17:30.901Z,5.50
2023-05-04T12:18:30.836Z,3.50
2023-05-04T12:19:30.825Z,3.80
2023-05-04T12:20:31.705Z,4.60
2023-05-04T12:21:30.796Z,2.80
2023-05-04T12:22:30.835Z,4.50
2023-05-04T12:23:30.828Z,4.40
2023-05-04T12:24:30.785Z,9.70
2023-05-04T12:25:30.752Z,3.00
2023-05-04T12:26:30.804Z,3.20
2023-05-04T12:27:30.714Z,3.50
2023-05-04T12:28:30.728Z,6.10
2023-05-04T12:29:30.700Z,6.30
2023-05-04T12:30:30.700Z,2.50
2023-05-04T12:31:30.696Z,5.60
2023-05-04T12:32:31.072Z,4.00
2023-05-04T12:33:30.704Z,2.00
2023-05-04T12:34:30.620Z,4.00
2023-05-04T12:35:30.621Z,3.30
2023-05-04T12:36:30.603Z,2.20
2023-05-04T12:37:30.605Z,3.40
2023-05-04T12:38:30.609Z,2.80
2023-05-04T12:39:30.565Z,2.50
2023-05-04T12:40:30.558Z,3.50
2023-05-04T12:41:30.572Z,4.10
2023-05-04T12:42:30.532Z,3.40
2023-05-04T12:43:30.519Z,2.50
2023-05-04T12:44:30.537Z,2.70
2023-05-04T12:45:30.487Z,2.30
2023-05-04T12:46:30.628Z,2.70
2023-05-04T12:47:30.493Z,2.90
2023-05-04T12:48:30.449Z,4.60
2023-05-04T12:49:30.470Z,3.80
2023-05-04T12:50:30.434Z,6.70
2023-05-04T12:51:30.402Z,5.90
2023-05-04T12:52:30.402Z,2.10
2023-05-04T12:53:30.379Z,3.30
2023-05-04T12:54:30.408Z,2.80
2023-05-04T12:55:30.373Z,3.50
2023-05-04T12:56:30.349Z,3.60
2023-05-04T12:57:30.337Z,2.70
2023-05-04T12:58:30.318Z,3.80
2023-05-04T12:59:30.329Z,3.50
2023-05-04T13:00:30.450Z,2.80
2023-05-04T13:01:30.348Z,4.50
2023-05-04T13:02:30.317Z,2.80
2023-05-04T13:03:30.419Z,3.40
2023-05-04T13:04:30.297Z,5.60
2023-05-04T13:05:30.272Z,3.40
2023-05-04T13:06:30.218Z,5.80
2023-05-04T13:07:30.203Z,2.90
2023-05-04T13:08:30.195Z,3.30
2023-05-04T13:09:30.188Z,2.40